sensor_id;sensor_type;location;lat;lon;timestamp;P1;durP1;ratioP1;P2;durP2;ratioP2
20567;SDS011;10442;49.932;11.592;2023-03-05T00:01:21;21.33;;;15.10;;
20567;SDS011;10442;49.932;11.592;2023-03-05T00:03:51;20.17;;;13.37;;
20567;SDS011;10442;49.932;11.592;2023-03-05T00:06:21;18.97;;;13.90;;
20567;SDS011;10442;49.932;11.592;2023-03-05T00:08:50;20.33;;;14.83;;
20567;SDS011;10442;49.932;11.592;2023-03-05T00:11:19;19.83;;;13.83;;
20567;SDS011;10442;49.932;11.592;2023-03-05T00:13:50;17.43;;;13.43;;
20567;SDS011;10442;49.932;11.592;2023-03-05T00:16:17;18.53;;;13.80;;
20567;SDS011;10442;49.932;11.592;2023-03-05T00:18:46;18.07;;;12.73;;
20567;SDS011;10442;49.932;11.592;2023-03-05T00:21:24;17.17;;;13.77;;
20567;SDS011;10442;49.932;11.592;2023-03-05T00:23:53;23.13;;;13.97;;
20567;SDS011;10442;49.932;11.592;2023-03-05T00:26:22;19.30;;;14.30;;
20567;SDS011;10442;49.932;11.592;2023-03-05T00:28:51;22.27;;;13.97;;
20567;SDS011;10442;49.932;11.592;2023-03-05T00:31:20;21.77;;;14.33;;
20567;SDS011;10442;49.932;11.592;2023-03-05T00:33:52;23.93;;;14.30;;
20567;SDS011;10442;49.932;11.592;2023-03-05T00:36:21;20.03;;;14.57;;
20567;SDS011;10442;49.932;11.592;2023-03-05T00:38:50;16.73;;;13.27;;
20567;SDS011;10442;49.932;11.592;2023-03-05T00:41:18;17.37;;;13.47;;
20567;SDS011;10442;49.932;11.592;2023-03-05T00:43:46;22.87;;;15.60;;
20567;SDS011;10442;49.932;11.592;2023-03-05T00:46:14;17.10;;;12.83;;
20567;SDS011;10442;49.932;11.592;2023-03-05T00:48:42;18.30;;;13.17;;
20567;SDS011;10442;49.932;11.592;2023-03-05T00:51:09;15.33;;;12.57;;
20567;SDS011;10442;49.932;11.592;2023-03-05T00:53:36;20.63;;;14.90;;
20567;SDS011;10442;49.932;11.592;2023-03-05T00:56:04;16.97;;;13.27;;
20567;SDS011;10442;49.932;11.592;2023-03-05T00:58:32;21.17;;;14.07;;
20567;SDS011;10442;49.932;11.592;2023-03-05T01:01:00;16.53;;;13.03;;
20567;SDS011;10442;49.932;11.592;2023-03-05T01:03:29;21.23;;;13.13;;
20567;SDS011;10442;49.932;11.592;2023-03-05T01:05:57;17.17;;;13.27;;
20567;SDS011;10442;49.932;11.592;2023-03-05T01:08:26;19.67;;;12.47;;
20567;SDS011;10442;49.932;11.592;2023-03-05T01:10:53;13.80;;;11.73;;
20567;SDS011;10442;49.932;11.592;2023-03-05T01:13:21;18.87;;;13.13;;
20567;SDS011;10442;49.932;11.592;2023-03-05T01:15:48;16.70;;;11.50;;
20567;SDS011;10442;49.932;11.592;2023-03-05T01:18:17;16.23;;;11.70;;
20567;SDS011;10442;49.932;11.592;2023-03-05T01:20:45;13.07;;;10.53;;
20567;SDS011;10442;49.932;11.592;2023-03-05T01:23:14;11.97;;;8.83;;
20567;SDS011;10442;49.932;11.592;2023-03-05T01:25:41;13.40;;;9.67;;
20567;SDS011;10442;49.932;11.592;2023-03-05T01:28:09;12.23;;;8.73;;
20567;SDS011;10442;49.932;11.592;2023-03-05T01:30:37;9.30;;;8.23;;
20567;SDS011;10442;49.932;11.592;2023-03-05T01:33:04;12.87;;;7.60;;
20567;SDS011;10442;49.932;11.592;2023-03-05T01:35:31;12.00;;;8.67;;
20567;SDS011;10442;49.932;11.592;2023-03-05T01:37:58;9.57;;;7.53;;
20567;SDS011;10442;49.932;11.592;2023-03-05T01:40:27;10.50;;;7.60;;
20567;SDS011;10442;49.932;11.592;2023-03-05T01:43:00;9.80;;;7.33;;
20567;SDS011;10442;49.932;11.592;2023-03-05T01:51:30;9.13;;;7.33;;
20567;SDS011;10442;49.932;11.592;2023-03-05T01:54:02;7.73;;;6.00;;
20567;SDS011;10442;49.932;11.592;2023-03-05T01:56:33;8.87;;;5.93;;
20567;SDS011;10442;49.932;11.592;2023-03-05T01:59:01;11.77;;;6.53;;
20567;SDS011;10442;49.932;11.592;2023-03-05T02:01:30;8.43;;;6.87;;
20567;SDS011;10442;49.932;11.592;2023-03-05T02:03:59;8.17;;;6.17;;
20567;SDS011;10442;49.932;11.592;2023-03-05T02:06:28;9.03;;;6.27;;
20567;SDS011;10442;49.932;11.592;2023-03-05T02:08:55;6.17;;;5.57;;
20567;SDS011;10442;49.932;11.592;2023-03-05T02:11:22;7.03;;;5.20;;
20567;SDS011;10442;49.932;11.592;2023-03-05T02:13:50;6.33;;;5.47;;
20567;SDS011;10442;49.932;11.592;2023-03-05T02:16:18;8.80;;;5.57;;
20567;SDS011;10442;49.932;11.592;2023-03-05T02:18:45;5.30;;;3.93;;
20567;SDS011;10442;49.932;11.592;2023-03-05T02:21:12;7.37;;;4.53;;
20567;SDS011;10442;49.932;11.592;2023-03-05T02:23:40;6.17;;;4.27;;
20567;SDS011;10442;49.932;11.592;2023-03-05T02:26:08;4.30;;;3.90;;
20567;SDS011;10442;49.932;11.592;2023-03-05T02:28:56;8.53;;;4.03;;
20567;SDS011;10442;49.932;11.592;2023-03-05T02:31:25;4.83;;;2.90;;
20567;SDS011;10442;49.932;11.592;2023-03-05T02:33:53;4.97;;;3.07;;
20567;SDS011;10442;49.932;11.592;2023-03-05T02:36:23;4.77;;;3.03;;
20567;SDS011;10442;49.932;11.592;2023-03-05T02:38:52;5.13;;;2.60;;
20567;SDS011;10442;49.932;11.592;2023-03-05T02:41:20;6.80;;;2.60;;
20567;SDS011;10442;49.932;11.592;2023-03-05T02:43:47;3.33;;;2.30;;
20567;SDS011;10442;49.932;11.592;2023-03-05T02:46:15;3.73;;;3.23;;
20567;SDS011;10442;49.932;11.592;2023-03-05T02:48:43;5.23;;;2.63;;
20567;SDS011;10442;49.932;11.592;2023-03-05T02:51:12;3.30;;;2.07;;
20567;SDS011;10442;49.932;11.592;2023-03-05T02:53:42;5.33;;;2.83;;
20567;SDS011;10442;49.932;11.592;2023-03-05T02:56:09;6.17;;;2.57;;
20567;SDS011;10442;49.932;11.592;2023-03-05T02:58:37;5.37;;;2.83;;
20567;SDS011;10442;49.932;11.592;2023-03-05T03:01:04;5.20;;;2.40;;
20567;SDS011;10442;49.932;11.592;2023-03-05T03:03:33;2.37;;;2.00;;
20567;SDS011;10442;49.932;11.592;2023-03-05T03:06:00;3.07;;;2.77;;
20567;SDS011;10442;49.932;11.592;2023-03-05T03:08:27;2.53;;;1.77;;
20567;SDS011;10442;49.932;11.592;2023-03-05T03:10:55;6.20;;;2.50;;
20567;SDS011;10442;49.932;11.592;2023-03-05T03:13:22;4.10;;;1.80;;
20567;SDS011;10442;49.932;11.592;2023-03-05T03:15:59;4.83;;;1.90;;
20567;SDS011;10442;49.932;11.592;2023-03-05T03:18:28;3.70;;;1.87;;
20567;SDS011;10442;49.932;11.592;2023-03-05T03:20:55;2.27;;;1.47;;
20567;SDS011;10442;49.932;11.592;2023-03-05T03:23:22;3.60;;;2.03;;
20567;SDS011;10442;49.932;11.592;2023-03-05T03:25:50;2.50;;;1.40;;
20567;SDS011;10442;49.932;11.592;2023-03-05T03:28:17;4.27;;;2.00;;
20567;SDS011;10442;49.932;11.592;2023-03-05T03:30:45;4.60;;;2.43;;
20567;SDS011;10442;49.932;11.592;2023-03-05T03:33:12;3.17;;;2.17;;
20567;SDS011;10442;49.932;11.592;2023-03-05T03:35:40;2.53;;;1.67;;
20567;SDS011;10442;49.932;11.592;2023-03-05T03:38:07;4.33;;;2.03;;
20567;SDS011;10442;49.932;11.592;2023-03-05T03:40:34;4.40;;;1.83;;
20567;SDS011;10442;49.932;11.592;2023-03-05T03:43:03;1.80;;;1.70;;
20567;SDS011;10442;49.932;11.592;2023-03-05T03:45:30;6.40;;;1.50;;
20567;SDS011;10442;49.932;11.592;2023-03-05T03:47:57;2.57;;;1.53;;
20567;SDS011;10442;49.932;11.592;2023-03-05T03:50:24;5.00;;;2.10;;
20567;SDS011;10442;49.932;11.592;2023-03-05T03:52:52;3.13;;;1.73;;
20567;SDS011;10442;49.932;11.592;2023-03-05T03:55:19;1.70;;;1.57;;
20567;SDS011;10442;49.932;11.592;2023-03-05T03:57:46;4.47;;;1.70;;
20567;SDS011;10442;49.932;11.592;2023-03-05T04:00:13;3.70;;;1.50;;
20567;SDS011;10442;49.932;11.592;2023-03-05T04:02:41;1.87;;;1.33;;
20567;SDS011;10442;49.932;11.592;2023-03-05T04:05:09;5.50;;;1.57;;
20567;SDS011;10442;49.932;11.592;2023-03-05T04:07:36;2.23;;;1.37;;
20567;SDS011;10442;49.932;11.592;2023-03-05T04:10:04;3.37;;;1.40;;
20567;SDS011;10442;49.932;11.592;2023-03-05T04:12:32;3.40;;;2.17;;
20567;SDS011;10442;49.932;11.592;2023-03-05T04:14:59;3.20;;;1.30;;
20567;SDS011;10442;49.932;11.592;2023-03-05T04:17:26;1.60;;;1.50;;
20567;SDS011;10442;49.932;11.592;2023-03-05T04:19:54;2.23;;;1.93;;
20567;SDS011;10442;49.932;11.592;2023-03-05T04:22:21;2.77;;;1.80;;
20567;SDS011;10442;49.932;11.592;2023-03-05T04:24:48;3.00;;;1.57;;
20567;SDS011;10442;49.932;11.592;2023-03-05T04:27:15;3.83;;;1.97;;
20567;SDS011;10442;49.932;11.592;2023-03-05T04:29:43;4.37;;;1.53;;
20567;SDS011;10442;49.932;11.592;2023-03-05T04:32:10;2.47;;;1.53;;
20567;SDS011;10442;49.932;11.592;2023-03-05T04:34:37;5.00;;;2.17;;
20567;SDS011;10442;49.932;11.592;2023-03-05T04:37:05;2.10;;;1.47;;
20567;SDS011;10442;49.932;11.592;2023-03-05T04:39:32;6.67;;;1.90;;
20567;SDS011;10442;49.932;11.592;2023-03-05T04:41:59;3.83;;;1.87;;
20567;SDS011;10442;49.932;11.592;2023-03-05T04:44:26;1.97;;;1.30;;
20567;SDS011;10442;49.932;11.592;2023-03-05T04:46:54;4.03;;;1.60;;
20567;SDS011;10442;49.932;11.592;2023-03-05T04:49:21;6.50;;;2.17;;
20567;SDS011;10442;49.932;11.592;2023-03-05T04:51:48;2.57;;;1.80;;
20567;SDS011;10442;49.932;11.592;2023-03-05T04:54:16;4.60;;;1.97;;
20567;SDS011;10442;49.932;11.592;2023-03-05T04:56:43;3.00;;;1.80;;
20567;SDS011;10442;49.932;11.592;2023-03-05T04:59:10;4.40;;;1.90;;
20567;SDS011;10442;49.932;11.592;2023-03-05T05:01:38;2.00;;;1.43;;
20567;SDS011;10442;49.932;11.592;2023-03-05T05:04:05;1.80;;;1.53;;
20567;SDS011;10442;49.932;11.592;2023-03-05T05:06:32;3.47;;;1.93;;
20567;SDS011;10442;49.932;11.592;2023-03-05T05:09:00;2.33;;;1.40;;
20567;SDS011;10442;49.932;11.592;2023-03-05T05:11:27;8.10;;;2.37;;
20567;SDS011;10442;49.932;11.592;2023-03-05T05:13:55;2.03;;;1.50;;
20567;SDS011;10442;49.932;11.592;2023-03-05T05:16:22;2.27;;;1.57;;
20567;SDS011;10442;49.932;11.592;2023-03-05T05:18:50;3.87;;;1.57;;
20567;SDS011;10442;49.932;11.592;2023-03-05T05:21:17;2.07;;;1.90;;
20567;SDS011;10442;49.932;11.592;2023-03-05T05:23:46;5.03;;;1.77;;
20567;SDS011;10442;49.932;11.592;2023-03-05T05:26:13;2.93;;;1.50;;
20567;SDS011;10442;49.932;11.592;2023-03-05T05:28:41;4.67;;;1.63;;
20567;SDS011;10442;49.932;11.592;2023-03-05T05:31:10;2.37;;;1.50;;
20567;SDS011;10442;49.932;11.592;2023-03-05T05:33:40;4.67;;;1.83;;
20567;SDS011;10442;49.932;11.592;2023-03-05T05:36:09;3.93;;;1.50;;
20567;SDS011;10442;49.932;11.592;2023-03-05T05:38:39;3.13;;;1.60;;
20567;SDS011;10442;49.932;11.592;2023-03-05T05:41:09;3.00;;;1.43;;
20567;SDS011;10442;49.932;11.592;2023-03-05T05:43:38;1.70;;;1.60;;
20567;SDS011;10442;49.932;11.592;2023-03-05T05:46:07;1.23;;;1.13;;
20567;SDS011;10442;49.932;11.592;2023-03-05T05:48:37;5.13;;;1.43;;
20567;SDS011;10442;49.932;11.592;2023-03-05T05:51:05;1.53;;;1.43;;
20567;SDS011;10442;49.932;11.592;2023-03-05T05:53:33;1.73;;;1.20;;
20567;SDS011;10442;49.932;11.592;2023-03-05T05:56:03;2.87;;;1.50;;
20567;SDS011;10442;49.932;11.592;2023-03-05T05:58:31;1.43;;;1.33;;
20567;SDS011;10442;49.932;11.592;2023-03-05T06:00:58;1.70;;;1.37;;
20567;SDS011;10442;49.932;11.592;2023-03-05T06:03:26;2.87;;;1.70;;
20567;SDS011;10442;49.932;11.592;2023-03-05T06:05:54;1.03;;;1.03;;
20567;SDS011;10442;49.932;11.592;2023-03-05T06:08:21;5.03;;;1.67;;
20567;SDS011;10442;49.932;11.592;2023-03-05T06:10:54;3.70;;;1.57;;
20567;SDS011;10442;49.932;11.592;2023-03-05T06:13:21;2.77;;;1.87;;
20567;SDS011;10442;49.932;11.592;2023-03-05T06:15:56;2.17;;;1.40;;
20567;SDS011;10442;49.932;11.592;2023-03-05T06:18:24;3.23;;;1.53;;
20567;SDS011;10442;49.932;11.592;2023-03-05T06:20:59;4.20;;;2.10;;
20567;SDS011;10442;49.932;11.592;2023-03-05T06:23:31;3.53;;;2.03;;
20567;SDS011;10442;49.932;11.592;2023-03-05T06:25:59;2.40;;;1.33;;
20567;SDS011;10442;49.932;11.592;2023-03-05T06:28:29;1.50;;;1.40;;
20567;SDS011;10442;49.932;11.592;2023-03-05T06:33:35;2.80;;;1.43;;
20567;SDS011;10442;49.932;11.592;2023-03-05T06:36:04;1.77;;;1.67;;
20567;SDS011;10442;49.932;11.592;2023-03-05T06:38:33;4.00;;;1.50;;
20567;SDS011;10442;49.932;11.592;2023-03-05T06:41:01;1.43;;;1.30;;
20567;SDS011;10442;49.932;11.592;2023-03-05T06:43:35;3.17;;;1.53;;
20567;SDS011;10442;49.932;11.592;2023-03-05T06:46:05;4.57;;;1.00;;
20567;SDS011;10442;49.932;11.592;2023-03-05T06:48:34;3.83;;;1.57;;
20567;SDS011;10442;49.932;11.592;2023-03-05T06:51:02;4.27;;;1.00;;
20567;SDS011;10442;49.932;11.592;2023-03-05T06:53:29;3.50;;;2.07;;
20567;SDS011;10442;49.932;11.592;2023-03-05T06:55:59;2.80;;;1.30;;
20567;SDS011;10442;49.932;11.592;2023-03-05T06:58:27;2.27;;;1.30;;
20567;SDS011;10442;49.932;11.592;2023-03-05T07:00:54;4.57;;;1.50;;
20567;SDS011;10442;49.932;11.592;2023-03-05T07:03:21;3.13;;;1.70;;
20567;SDS011;10442;49.932;11.592;2023-03-05T07:05:48;3.97;;;1.77;;
20567;SDS011;10442;49.932;11.592;2023-03-05T07:08:15;5.47;;;1.63;;
20567;SDS011;10442;49.932;11.592;2023-03-05T07:10:43;1.90;;;1.67;;
20567;SDS011;10442;49.932;11.592;2023-03-05T07:13:10;1.47;;;1.37;;
20567;SDS011;10442;49.932;11.592;2023-03-05T07:15:38;1.63;;;1.53;;
20567;SDS011;10442;49.932;11.592;2023-03-05T07:18:06;4.93;;;1.90;;
20567;SDS011;10442;49.932;11.592;2023-03-05T07:20:34;1.67;;;1.57;;
20567;SDS011;10442;49.932;11.592;2023-03-05T07:23:02;4.90;;;2.00;;
20567;SDS011;10442;49.932;11.592;2023-03-05T07:25:29;1.50;;;1.40;;
20567;SDS011;10442;49.932;11.592;2023-03-05T07:27:57;3.03;;;1.73;;
20567;SDS011;10442;49.932;11.592;2023-03-05T07:30:25;2.60;;;1.70;;
20567;SDS011;10442;49.932;11.592;2023-03-05T07:32:52;2.13;;;1.63;;
20567;SDS011;10442;49.932;11.592;2023-03-05T07:35:19;2.73;;;1.37;;
20567;SDS011;10442;49.932;11.592;2023-03-05T07:37:47;3.67;;;1.60;;
20567;SDS011;10442;49.932;11.592;2023-03-05T07:40:14;2.77;;;1.83;;
20567;SDS011;10442;49.932;11.592;2023-03-05T07:42:41;4.40;;;2.00;;
20567;SDS011;10442;49.932;11.592;2023-03-05T07:45:18;1.83;;;1.60;;
20567;SDS011;10442;49.932;11.592;2023-03-05T07:47:46;4.87;;;2.13;;
20567;SDS011;10442;49.932;11.592;2023-03-05T07:50:13;2.00;;;1.70;;
20567;SDS011;10442;49.932;11.592;2023-03-05T07:52:40;2.07;;;1.70;;
20567;SDS011;10442;49.932;11.592;2023-03-05T07:55:08;1.97;;;1.77;;
20567;SDS011;10442;49.932;11.592;2023-03-05T07:57:35;2.03;;;1.80;;
20567;SDS011;10442;49.932;11.592;2023-03-05T08:00:05;2.17;;;1.97;;
20567;SDS011;10442;49.932;11.592;2023-03-05T08:02:37;2.03;;;1.70;;
20567;SDS011;10442;49.932;11.592;2023-03-05T08:05:04;2.67;;;1.50;;
20567;SDS011;10442;49.932;11.592;2023-03-05T08:07:32;2.17;;;1.87;;
20567;SDS011;10442;49.932;11.592;2023-03-05T08:09:59;1.27;;;1.27;;
20567;SDS011;10442;49.932;11.592;2023-03-05T08:12:27;4.07;;;1.70;;
20567;SDS011;10442;49.932;11.592;2023-03-05T08:14:55;2.63;;;1.93;;
20567;SDS011;10442;49.932;11.592;2023-03-05T08:17:22;3.30;;;1.87;;
20567;SDS011;10442;49.932;11.592;2023-03-05T08:19:50;4.13;;;2.13;;
20567;SDS011;10442;49.932;11.592;2023-03-05T08:22:17;1.53;;;1.43;;
20567;SDS011;10442;49.932;11.592;2023-03-05T08:24:46;2.67;;;1.70;;
20567;SDS011;10442;49.932;11.592;2023-03-05T08:27:13;5.07;;;1.83;;
20567;SDS011;10442;49.932;11.592;2023-03-05T08:29:40;2.10;;;1.70;;
20567;SDS011;10442;49.932;11.592;2023-03-05T08:32:08;3.73;;;1.63;;
20567;SDS011;10442;49.932;11.592;2023-03-05T08:34:35;4.43;;;1.97;;
20567;SDS011;10442;49.932;11.592;2023-03-05T08:37:03;2.57;;;1.67;;
20567;SDS011;10442;49.932;11.592;2023-03-05T08:39:31;2.43;;;1.80;;
20567;SDS011;10442;49.932;11.592;2023-03-05T08:41:59;4.53;;;1.30;;
20567;SDS011;10442;49.932;11.592;2023-03-05T08:44:26;2.43;;;1.83;;
20567;SDS011;10442;49.932;11.592;2023-03-05T08:46:53;8.13;;;1.90;;
20567;SDS011;10442;49.932;11.592;2023-03-05T08:49:21;1.47;;;1.37;;
20567;SDS011;10442;49.932;11.592;2023-03-05T08:51:48;3.17;;;1.50;;
20567;SDS011;10442;49.932;11.592;2023-03-05T08:54:16;3.17;;;1.90;;
20567;SDS011;10442;49.932;11.592;2023-03-05T08:56:43;1.53;;;1.43;;
20567;SDS011;10442;49.932;11.592;2023-03-05T08:59:11;2.70;;;1.60;;
20567;SDS011;10442;49.932;11.592;2023-03-05T09:01:39;2.40;;;1.90;;
20567;SDS011;10442;49.932;11.592;2023-03-05T09:04:08;2.70;;;1.63;;
20567;SDS011;10442;49.932;11.592;2023-03-05T09:06:35;2.07;;;1.50;;
20567;SDS011;10442;49.932;11.592;2023-03-05T09:09:06;3.27;;;1.57;;
20567;SDS011;10442;49.932;11.592;2023-03-05T09:11:35;3.17;;;1.80;;
20567;SDS011;10442;49.932;11.592;2023-03-05T09:14:02;1.43;;;1.10;;
20567;SDS011;10442;49.932;11.592;2023-03-05T09:16:31;1.67;;;1.30;;
20567;SDS011;10442;49.932;11.592;2023-03-05T09:18:59;2.43;;;1.20;;
20567;SDS011;10442;49.932;11.592;2023-03-05T09:21:26;2.77;;;1.40;;
20567;SDS011;10442;49.932;11.592;2023-03-05T09:23:54;3.47;;;1.37;;
20567;SDS011;10442;49.932;11.592;2023-03-05T09:26:25;1.40;;;1.30;;
20567;SDS011;10442;49.932;11.592;2023-03-05T09:28:53;2.03;;;1.57;;
20567;SDS011;10442;49.932;11.592;2023-03-05T09:31:20;1.40;;;1.30;;
20567;SDS011;10442;49.932;11.592;2023-03-05T09:33:48;4.53;;;2.27;;
20567;SDS011;10442;49.932;11.592;2023-03-05T09:36:17;3.63;;;1.37;;
20567;SDS011;10442;49.932;11.592;2023-03-05T09:38:52;1.40;;;1.30;;
20567;SDS011;10442;49.932;11.592;2023-03-05T09:41:27;2.70;;;1.60;;
20567;SDS011;10442;49.932;11.592;2023-03-05T09:56:21;1.40;;;1.30;;
20567;SDS011;10442;49.932;11.592;2023-03-05T09:58:53;3.00;;;1.40;;
20567;SDS011;10442;49.932;11.592;2023-03-05T10:01:36;3.70;;;1.37;;
20567;SDS011;10442;49.932;11.592;2023-03-05T10:06:36;2.97;;;1.80;;
20567;SDS011;10442;49.932;11.592;2023-03-05T10:11:44;1.83;;;1.57;;
20567;SDS011;10442;49.932;11.592;2023-03-05T10:14:25;2.43;;;1.03;;
20567;SDS011;10442;49.932;11.592;2023-03-05T10:16:59;2.10;;;1.40;;
20567;SDS011;10442;49.932;11.592;2023-03-05T10:22:28;2.80;;;1.57;;
20567;SDS011;10442;49.932;11.592;2023-03-05T10:28:03;1.83;;;1.10;;
20567;SDS011;10442;49.932;11.592;2023-03-05T10:33:28;1.30;;;1.20;;
20567;SDS011;10442;49.932;11.592;2023-03-05T10:42:19;3.63;;;1.37;;
20567;SDS011;10442;49.932;11.592;2023-03-05T10:45:00;1.43;;;1.20;;
20567;SDS011;10442;49.932;11.592;2023-03-05T10:47:44;1.30;;;1.17;;
20567;SDS011;10442;49.932;11.592;2023-03-05T10:50:31;2.92;;;0.98;;
20567;SDS011;10442;49.932;11.592;2023-03-05T10:53:13;1.50;;;1.40;;
20567;SDS011;10442;49.932;11.592;2023-03-05T10:56:00;0.80;;;0.80;;
20567;SDS011;10442;49.932;11.592;2023-03-05T10:58:30;1.23;;;1.13;;
20567;SDS011;10442;49.932;11.592;2023-03-05T11:06:37;4.20;;;1.40;;
20567;SDS011;10442;49.932;11.592;2023-03-05T11:09:14;1.17;;;1.08;;
20567;SDS011;10442;49.932;11.592;2023-03-05T11:11:41;1.30;;;0.98;;
20567;SDS011;10442;49.932;11.592;2023-03-05T11:14:23;2.92;;;2.05;;
20567;SDS011;10442;49.932;11.592;2023-03-05T11:16:56;1.45;;;1.00;;
20567;SDS011;10442;49.932;11.592;2023-03-05T11:19:28;2.55;;;0.90;;
20567;SDS011;10442;49.932;11.592;2023-03-05T11:22:15;0.82;;;0.82;;
20567;SDS011;10442;49.932;11.592;2023-03-05T11:24:42;1.55;;;1.02;;
20567;SDS011;10442;49.932;11.592;2023-03-05T11:27:27;1.20;;;1.10;;
20567;SDS011;10442;49.932;11.592;2023-03-05T11:30:00;1.63;;;0.80;;
20567;SDS011;10442;49.932;11.592;2023-03-05T11:32:29;0.75;;;0.75;;
20567;SDS011;10442;49.932;11.592;2023-03-05T11:34:57;0.80;;;0.77;;
20567;SDS011;10442;49.932;11.592;2023-03-05T11:40:13;1.65;;;1.08;;
20567;SDS011;10442;49.932;11.592;2023-03-05T11:42:45;1.00;;;0.95;;
20567;SDS011;10442;49.932;11.592;2023-03-05T11:45:21;2.40;;;1.30;;
20567;SDS011;10442;49.932;11.592;2023-03-05T11:47:50;1.92;;;1.10;;
20567;SDS011;10442;49.932;11.592;2023-03-05T11:52:52;2.40;;;0.90;;
20567;SDS011;10442;49.932;11.592;2023-03-05T11:55:38;1.60;;;1.42;;
20567;SDS011;10442;49.932;11.592;2023-03-05T12:00:45;2.65;;;1.33;;
20567;SDS011;10442;49.932;11.592;2023-03-05T12:03:14;1.52;;;1.38;;
20567;SDS011;10442;49.932;11.592;2023-03-05T12:05:47;1.73;;;1.57;;
20567;SDS011;10442;49.932;11.592;2023-03-05T12:08:18;2.63;;;1.33;;
20567;SDS011;10442;49.932;11.592;2023-03-05T12:10:58;1.23;;;1.00;;
20567;SDS011;10442;49.932;11.592;2023-03-05T12:13:34;1.02;;;1.00;;
20567;SDS011;10442;49.932;11.592;2023-03-05T12:16:20;2.78;;;1.55;;
20567;SDS011;10442;49.932;11.592;2023-03-05T12:21:51;4.10;;;1.20;;
20567;SDS011;10442;49.932;11.592;2023-03-05T13:00:49;2.22;;;1.60;;
20567;SDS011;10442;49.932;11.592;2023-03-05T13:03:32;3.83;;;1.50;;
20567;SDS011;10442;49.932;11.592;2023-03-05T13:06:02;2.17;;;1.40;;
20567;SDS011;10442;49.932;11.592;2023-03-05T13:08:35;2.00;;;1.40;;
20567;SDS011;10442;49.932;11.592;2023-03-05T13:11:04;1.30;;;1.20;;
20567;SDS011;10442;49.932;11.592;2023-03-05T13:13:35;1.80;;;1.70;;
20567;SDS011;10442;49.932;11.592;2023-03-05T13:16:17;1.70;;;1.60;;
20567;SDS011;10442;49.932;11.592;2023-03-05T13:18:46;1.90;;;1.50;;
20567;SDS011;10442;49.932;11.592;2023-03-05T13:21:16;2.73;;;1.70;;
20567;SDS011;10442;49.932;11.592;2023-03-05T13:23:48;3.17;;;1.63;;
20567;SDS011;10442;49.932;11.592;2023-03-05T13:26:27;1.27;;;1.20;;
20567;SDS011;10442;49.932;11.592;2023-03-05T13:29:12;1.13;;;1.13;;
20567;SDS011;10442;49.932;11.592;2023-03-05T13:32:00;4.30;;;2.38;;
20567;SDS011;10442;49.932;11.592;2023-03-05T13:34:48;2.15;;;1.65;;
20567;SDS011;10442;49.932;11.592;2023-03-05T13:37:18;2.05;;;1.33;;
20567;SDS011;10442;49.932;11.592;2023-03-05T13:39:48;2.13;;;1.52;;
20567;SDS011;10442;49.932;11.592;2023-03-05T13:42:28;2.30;;;1.50;;
20567;SDS011;10442;49.932;11.592;2023-03-05T13:45:02;1.30;;;1.20;;
20567;SDS011;10442;49.932;11.592;2023-03-05T13:47:50;1.00;;;1.00;;
20567;SDS011;10442;49.932;11.592;2023-03-05T13:50:29;1.40;;;1.30;;
20567;SDS011;10442;49.932;11.592;2023-03-05T13:53:15;2.80;;;1.60;;
20567;SDS011;10442;49.932;11.592;2023-03-05T13:55:46;2.92;;;2.13;;
20567;SDS011;10442;49.932;11.592;2023-03-05T14:01:23;1.70;;;1.35;;
20567;SDS011;10442;49.932;11.592;2023-03-05T14:04:01;1.52;;;1.42;;
20567;SDS011;10442;49.932;11.592;2023-03-05T14:06:48;1.30;;;1.20;;
20567;SDS011;10442;49.932;11.592;2023-03-05T14:09:30;5.65;;;1.52;;
20567;SDS011;10442;49.932;11.592;2023-03-05T14:12:02;4.20;;;1.75;;
20567;SDS011;10442;49.932;11.592;2023-03-05T14:14:36;1.20;;;1.20;;
20567;SDS011;10442;49.932;11.592;2023-03-05T14:17:20;2.47;;;1.83;;
20567;SDS011;10442;49.932;11.592;2023-03-05T14:20:15;2.37;;;1.30;;
20567;SDS011;10442;49.932;11.592;2023-03-05T14:22:45;2.08;;;1.90;;
20567;SDS011;10442;49.932;11.592;2023-03-05T14:25:27;2.37;;;1.27;;
20567;SDS011;10442;49.932;11.592;2023-03-05T14:30:45;2.50;;;1.53;;
20567;SDS011;10442;49.932;11.592;2023-03-05T14:33:14;1.30;;;1.20;;
20567;SDS011;10442;49.932;11.592;2023-03-05T14:35:58;2.97;;;1.33;;
20567;SDS011;10442;49.932;11.592;2023-03-05T14:38:28;2.70;;;2.10;;
20567;SDS011;10442;49.932;11.592;2023-03-05T14:40:57;2.47;;;1.77;;
20567;SDS011;10442;49.932;11.592;2023-03-05T14:43:44;2.50;;;1.60;;
20567;SDS011;10442;49.932;11.592;2023-03-05T14:46:11;1.23;;;1.17;;
20567;SDS011;10442;49.932;11.592;2023-03-05T14:48:39;1.77;;;1.25;;
20567;SDS011;10442;49.932;11.592;2023-03-05T14:51:08;1.33;;;1.23;;
20567;SDS011;10442;49.932;11.592;2023-03-05T14:53:38;1.90;;;1.38;;
20567;SDS011;10442;49.932;11.592;2023-03-05T14:56:30;1.13;;;1.13;;
20567;SDS011;10442;49.932;11.592;2023-03-05T14:58:58;4.20;;;1.83;;
20567;SDS011;10442;49.932;11.592;2023-03-05T15:01:25;5.63;;;1.23;;
20567;SDS011;10442;49.932;11.592;2023-03-05T15:03:53;2.10;;;1.90;;
20567;SDS011;10442;49.932;11.592;2023-03-05T15:06:24;2.63;;;1.70;;
20567;SDS011;10442;49.932;11.592;2023-03-05T15:08:59;1.43;;;1.33;;
20567;SDS011;10442;49.932;11.592;2023-03-05T15:11:27;1.50;;;1.37;;
20567;SDS011;10442;49.932;11.592;2023-03-05T15:13:54;2.20;;;2.00;;
20567;SDS011;10442;49.932;11.592;2023-03-05T15:16:22;1.70;;;1.60;;
20567;SDS011;10442;49.932;11.592;2023-03-05T15:18:49;2.10;;;1.50;;
20567;SDS011;10442;49.932;11.592;2023-03-05T15:21:16;2.57;;;1.70;;
20567;SDS011;10442;49.932;11.592;2023-03-05T15:23:44;2.47;;;1.60;;
20567;SDS011;10442;49.932;11.592;2023-03-05T15:26:12;1.50;;;1.40;;
20567;SDS011;10442;49.932;11.592;2023-03-05T15:28:40;1.47;;;1.37;;
20567;SDS011;10442;49.932;11.592;2023-03-05T15:31:09;2.53;;;1.70;;
20567;SDS011;10442;49.932;11.592;2023-03-05T15:33:37;1.77;;;1.70;;
20567;SDS011;10442;49.932;11.592;2023-03-05T15:36:05;1.60;;;1.50;;
20567;SDS011;10442;49.932;11.592;2023-03-05T15:38:33;1.70;;;1.60;;
20567;SDS011;10442;49.932;11.592;2023-03-05T15:41:00;2.80;;;1.60;;
20567;SDS011;10442;49.932;11.592;2023-03-05T15:43:28;1.83;;;1.50;;
20567;SDS011;10442;49.932;11.592;2023-03-05T15:45:56;1.47;;;1.37;;
20567;SDS011;10442;49.932;11.592;2023-03-05T15:48:23;2.80;;;2.23;;
20567;SDS011;10442;49.932;11.592;2023-03-05T15:50:51;1.80;;;1.70;;
20567;SDS011;10442;49.932;11.592;2023-03-05T15:53:18;2.23;;;2.03;;
20567;SDS011;10442;49.932;11.592;2023-03-05T15:55:47;2.43;;;2.23;;
20567;SDS011;10442;49.932;11.592;2023-03-05T15:58:14;2.30;;;1.90;;
20567;SDS011;10442;49.932;11.592;2023-03-05T16:00:43;2.77;;;2.13;;
20567;SDS011;10442;49.932;11.592;2023-03-05T16:03:13;1.70;;;1.40;;
20567;SDS011;10442;49.932;11.592;2023-03-05T16:05:40;1.70;;;1.60;;
20567;SDS011;10442;49.932;11.592;2023-03-05T16:08:08;1.93;;;1.50;;
20567;SDS011;10442;49.932;11.592;2023-03-05T16:10:36;2.87;;;2.20;;
20567;SDS011;10442;49.932;11.592;2023-03-05T16:13:07;3.33;;;2.07;;
20567;SDS011;10442;49.932;11.592;2023-03-05T16:15:38;2.60;;;1.87;;
20567;SDS011;10442;49.932;11.592;2023-03-05T16:18:08;2.97;;;2.00;;
20567;SDS011;10442;49.932;11.592;2023-03-05T16:20:38;2.83;;;2.13;;
20567;SDS011;10442;49.932;11.592;2023-03-05T16:23:05;3.63;;;1.97;;
20567;SDS011;10442;49.932;11.592;2023-03-05T16:25:33;2.30;;;1.90;;
20567;SDS011;10442;49.932;11.592;2023-03-05T16:28:01;2.03;;;1.70;;